Time;durP1;ratioP1;P1;durP2;ratioP2;P2;SDS_P1;SDS_P2;PMS_P1;PMS_P2;Temp;Humidity;BMP_temperature;BMP_pressure;BME280_temperature;BME280_humidity;BME280_pressure;Samples;Min_cycle;Max_cycle;Signal;HPM_P1;HPM_P2
2021/06/12 00:00:17;;;;;;;0.00;0.00;;;;;;;;;;5092753;28;20253;-64
2021/06/12 00:02:43;;;;;;;0.00;0.00;;;;;;;;;;5095200;28;20204;-64
2021/06/12 00:05:09;;;;;;;0.00;0.00;;;;;;;;;;5097447;28;20270;-64
2021/06/12 00:07:35;;;;;;;0.00;0.00;;;;;;;;;;5096609;28;20212;-65
2021/06/12 00:10:01;;;;;;;0.00;0.00;;;;;;;;;;5087601;28;20211;-64
2021/06/12 00:12:27;;;;;;;0.00;0.00;;;;;;;;;;5114171;28;20203;-64
2021/06/12 00:14:54;;;;;;;0.00;0.00;;;;;;;;;;5112835;28;20209;-64
2021/06/12 00:17:19;;;;;;;0.00;0.00;;;;;;;;;;5097950;28;20257;-65
2021/06/12 00:19:45;;;;;;;0.00;0.00;;;;;;;;;;5106471;28;20489;-64
2021/06/12 00:22:11;;;;;;;0.00;0.00;;;;;;;;;;5102252;28;20206;-64
2021/06/12 00:24:37;;;;;;;0.00;0.00;;;;;;;;;;5099731;28;20285;-64
2021/06/12 00:27:02;;;;;;;0.00;0.00;;;;;;;;;;5103733;28;20205;-64
2021/06/12 00:29:28;;;;;;;0.00;0.00;;;;;;;;;;5100018;28;20238;-64
2021/06/12 00:31:55;;;;;;;0.00;0.00;;;;;;;;;;5114474;28;20477;-64
2021/06/12 00:34:21;;;;;;;0.00;0.00;;;;;;;;;;5090935;28;20202;-65
2021/06/12 00:36:47;;;;;;;0.10;0.10;;;;;;;;;;5103676;28;20214;-64
2021/06/12 00:39:13;;;;;;;0.00;0.00;;;;;;;;;;5106373;28;20219;-64
2021/06/12 00:41:38;;;;;;;0.00;0.00;;;;;;;;;;5110707;28;20244;-64
2021/06/12 00:44:04;;;;;;;0.00;0.00;;;;;;;;;;5110374;28;20470;-65
2021/06/12 00:46:30;;;;;;;0.00;0.00;;;;;;;;;;5102223;28;20206;-64
2021/06/12 00:48:58;;;;;;;0.00;0.00;;;;;;;;;;5104338;28;20263;-64
2021/06/12 00:51:24;;;;;;;0.10;0.10;;;;;;;;;;5107003;28;20228;-64
2021/06/12 00:53:49;;;;;;;0.00;0.00;;;;;;;;;;5102273;28;20474;-64
2021/06/12 00:56:16;;;;;;;0.00;0.00;;;;;;;;;;5109475;28;20524;-65
2021/06/12 00:58:43;;;;;;;0.00;0.00;;;;;;;;;;5099328;28;20214;-64
2021/06/12 01:01:09;;;;;;;0.00;0.00;;;;;;;;;;5106040;28;20203;-65
2021/06/12 01:03:35;;;;;;;0.00;0.00;;;;;;;;;;5115642;28;20532;-64
2021/06/12 01:06:02;;;;;;;0.00;0.00;;;;;;;;;;5106406;28;20207;-64
2021/06/12 01:08:28;;;;;;;0.00;0.00;;;;;;;;;;5106310;28;20225;-64
2021/06/12 01:10:54;;;;;;;0.00;0.00;;;;;;;;;;5106307;28;20247;-65
2021/06/12 01:13:24;;;;;;;0.00;0.00;;;;;;;;;;5105841;28;20214;-65
2021/06/12 01:15:54;;;;;;;0.08;0.08;;;;;;;;;;5105501;28;20530;-64
2021/06/12 01:18:22;;;;;;;0.08;0.08;;;;;;;;;;5106249;28;20202;-64
2021/06/12 01:21:18;;;;;;;0.00;0.00;;;;;;;;;;5102135;28;20206;-65
2021/06/12 01:24:14;;;;;;;0.00;0.00;;;;;;;;;;5003417;28;20446;-65
2021/06/12 01:26:48;;;;;;;0.00;0.00;;;;;;;;;;5113831;28;20252;-64
2021/06/12 01:29:21;;;;;;;0.00;0.00;;;;;;;;;;5120037;28;20438;-64
2021/06/12 01:31:48;;;;;;;0.00;0.00;;;;;;;;;;5103316;28;20195;-64
2021/06/12 01:34:13;;;;;;;0.00;0.00;;;;;;;;;;5105869;28;20468;-64
2021/06/12 01:36:41;;;;;;;0.00;0.00;;;;;;;;;;5119022;28;20217;-64
2021/06/12 01:39:07;;;;;;;0.00;0.00;;;;;;;;;;5105451;28;20199;-65
2021/06/12 01:41:34;;;;;;;0.05;0.05;;;;;;;;;;5105641;28;20295;-64
2021/06/12 01:44:01;;;;;;;0.00;0.00;;;;;;;;;;5105592;28;20209;-65
2021/06/12 01:46:28;;;;;;;0.00;0.00;;;;;;;;;;5105312;28;20209;-65
2021/06/12 01:48:58;;;;;;;0.00;0.00;;;;;;;;;;5106574;28;20234;-64
2021/06/12 01:51:24;;;;;;;0.00;0.00;;;;;;;;;;5111530;28;20269;-64
2021/06/12 01:53:52;;;;;;;0.00;0.00;;;;;;;;;;5100585;28;20206;-64
2021/06/12 01:56:18;;;;;;;0.00;0.00;;;;;;;;;;5101541;28;20225;-65
2021/06/12 01:58:44;;;;;;;0.00;0.00;;;;;;;;;;5116501;28;20199;-65
2021/06/12 02:01:11;;;;;;;0.00;0.00;;;;;;;;;;5105003;28;20207;-64
2021/06/12 02:03:37;;;;;;;0.00;0.00;;;;;;;;;;5104563;28;20203;-64
2021/06/12 02:06:04;;;;;;;0.03;0.03;;;;;;;;;;5105056;28;20492;-65
2021/06/12 02:08:30;;;;;;;0.00;0.00;;;;;;;;;;5107820;28;20245;-64
2021/06/12 02:10:56;;;;;;;0.00;0.00;;;;;;;;;;5094460;28;20237;-64
2021/06/12 02:13:23;;;;;;;0.00;0.00;;;;;;;;;;5105111;28;20494;-64
2021/06/12 02:15:51;;;;;;;0.22;0.22;;;;;;;;;;5104727;28;20241;-64
2021/06/12 02:18:18;;;;;;;0.10;0.10;;;;;;;;;;5104896;28;20527;-64
2021/06/12 02:20:44;;;;;;;2.75;2.65;;;;;;;;;;5105094;28;20500;-64
2021/06/12 02:23:11;;;;;;;0.00;0.00;;;;;;;;;;5104707;28;20203;-64
2021/06/12 02:25:37;;;;;;;0.00;0.00;;;;;;;;;;5103721;28;20305;-64
2021/06/12 02:28:05;;;;;;;0.00;0.00;;;;;;;;;;5115326;28;20227;-64
2021/06/12 02:30:31;;;;;;;0.00;0.00;;;;;;;;;;5104613;28;20232;-64
2021/06/12 02:32:59;;;;;;;0.00;0.00;;;;;;;;;;5104577;28;20203;-64
2021/06/12 02:35:25;;;;;;;0.00;0.00;;;;;;;;;;5104469;28;20221;-64
2021/06/12 02:37:51;;;;;;;0.00;0.00;;;;;;;;;;5105616;28;20256;-64
2021/06/12 02:40:18;;;;;;;0.00;0.00;;;;;;;;;;5104640;28;20210;-64
2021/06/12 02:42:44;;;;;;;0.00;0.00;;;;;;;;;;5104610;28;20214;-65
2021/06/12 02:45:10;;;;;;;0.00;0.00;;;;;;;;;;5104826;28;20367;-64
2021/06/12 02:47:36;;;;;;;0.00;0.00;;;;;;;;;;5104465;28;20203;-64
2021/06/12 02:50:03;;;;;;;0.00;0.00;;;;;;;;;;5103801;28;20298;-64
2021/06/12 02:52:30;;;;;;;0.00;0.00;;;;;;;;;;5104314;28;20213;-64
2021/06/12 02:54:56;;;;;;;0.30;0.30;;;;;;;;;;5104345;28;20420;-64
2021/06/12 02:57:25;;;;;;;0.00;0.00;;;;;;;;;;5098685;28;20438;-64
2021/06/12 02:59:52;;;;;;;0.00;0.00;;;;;;;;;;5103942;28;20206;-64
2021/06/12 03:02:19;;;;;;;0.00;0.00;;;;;;;;;;5104169;28;20203;-64
2021/06/12 03:04:45;;;;;;;0.10;0.10;;;;;;;;;;5115929;28;20237;-65
2021/06/12 03:07:12;;;;;;;0.00;0.00;;;;;;;;;;5104033;28;20422;-64
2021/06/12 03:09:39;;;;;;;1.25;1.25;;;;;;;;;;5094544;28;20245;-64
2021/06/12 03:12:06;;;;;;;0.00;0.00;;;;;;;;;;5103027;28;20209;-65
2021/06/12 03:14:33;;;;;;;0.00;0.00;;;;;;;;;;5102741;28;20461;-64
2021/06/12 03:17:00;;;;;;;0.00;0.00;;;;;;;;;;5103842;28;20216;-64
2021/06/12 03:19:26;;;;;;;0.00;0.00;;;;;;;;;;5103769;28;20213;-64
2021/06/12 03:21:52;;;;;;;0.00;0.00;;;;;;;;;;5103857;28;20228;-64
2021/06/12 03:24:18;;;;;;;0.10;0.10;;;;;;;;;;5103242;28;20201;-65
2021/06/12 03:26:44;;;;;;;0.00;0.00;;;;;;;;;;5103576;28;20221;-64
2021/06/12 03:29:10;;;;;;;0.10;0.10;;;;;;;;;;5103528;28;20225;-64
2021/06/12 03:31:37;;;;;;;0.00;0.00;;;;;;;;;;5103283;28;20238;-64
2021/06/12 03:34:03;;;;;;;0.03;0.03;;;;;;;;;;5103436;28;20209;-66
2021/06/12 03:36:29;;;;;;;0.00;0.00;;;;;;;;;;5103462;28;20484;-64
2021/06/12 03:38:55;;;;;;;0.10;0.10;;;;;;;;;;5103289;28;20236;-64
2021/06/12 03:41:21;;;;;;;0.00;0.00;;;;;;;;;;5103074;28;20205;-64
2021/06/12 03:43:48;;;;;;;0.00;0.00;;;;;;;;;;5103466;28;20228;-64
2021/06/12 03:46:14;;;;;;;0.10;0.10;;;;;;;;;;5096037;28;20212;-64
2021/06/12 03:48:41;;;;;;;0.00;0.00;;;;;;;;;;5103457;28;20224;-64
2021/06/12 03:51:09;;;;;;;0.10;0.10;;;;;;;;;;5102541;28;20262;-64
2021/06/12 03:53:43;;;;;;;0.00;0.00;;;;;;;;;;5096427;28;20209;-64
2021/06/12 03:56:09;;;;;;;0.03;0.03;;;;;;;;;;5102800;28;20199;-65
2021/06/12 03:58:35;;;;;;;0.00;0.00;;;;;;;;;;5103111;28;20506;-65
2021/06/12 04:01:01;;;;;;;0.10;0.10;;;;;;;;;;5102790;28;20209;-66
2021/06/12 04:03:27;;;;;;;0.00;0.00;;;;;;;;;;5100121;28;20211;-65
2021/06/12 04:05:54;;;;;;;1.05;1.05;;;;;;;;;;5103025;28;20506;-64
2021/06/12 04:08:20;;;;;;;0.10;0.10;;;;;;;;;;5106128;28;20535;-65
2021/06/12 04:10:45;;;;;;;0.10;0.10;;;;;;;;;;5092855;28;20244;-64
2021/06/12 04:13:11;;;;;;;0.00;0.00;;;;;;;;;;5092279;28;20211;-64
2021/06/12 04:15:37;;;;;;;0.00;0.00;;;;;;;;;;5099162;28;20227;-64
2021/06/12 04:18:07;;;;;;;0.00;0.00;;;;;;;;;;5102882;28;20208;-64
2021/06/12 04:20:34;;;;;;;0.00;0.00;;;;;;;;;;5102465;28;20205;-64
2021/06/12 04:23:01;;;;;;;0.00;0.00;;;;;;;;;;5100090;28;20210;-64
2021/06/12 04:25:27;;;;;;;0.00;0.00;;;;;;;;;;5109030;28;20342;-64
2021/06/12 04:27:52;;;;;;;0.10;0.10;;;;;;;;;;5102508;28;20478;-64
2021/06/12 04:30:20;;;;;;;0.03;0.03;;;;;;;;;;5111222;28;20496;-64
2021/06/12 04:32:46;;;;;;;0.10;0.10;;;;;;;;;;5103355;28;20200;-64
2021/06/12 04:35:12;;;;;;;0.00;0.00;;;;;;;;;;5102685;28;20211;-65
2021/06/12 04:37:38;;;;;;;0.00;0.00;;;;;;;;;;5102194;28;20204;-64
2021/06/12 04:40:06;;;;;;;0.00;0.00;;;;;;;;;;5102592;28;20221;-65
2021/06/12 04:42:32;;;;;;;0.00;0.00;;;;;;;;;;5102595;28;20219;-64
2021/06/12 04:44:57;;;;;;;0.00;0.00;;;;;;;;;;5088448;28;20200;-64
2021/06/12 04:47:23;;;;;;;1.85;1.75;;;;;;;;;;5102347;28;20210;-64
2021/06/12 04:49:49;;;;;;;0.00;0.00;;;;;;;;;;5102202;28;20222;-64
2021/06/12 04:52:15;;;;;;;0.00;0.00;;;;;;;;;;5102352;28;20362;-64
2021/06/12 04:54:40;;;;;;;0.00;0.00;;;;;;;;;;5100388;28;20204;-64
2021/06/12 04:57:08;;;;;;;0.00;0.00;;;;;;;;;;5097147;28;20204;-64
2021/06/12 04:59:34;;;;;;;0.10;0.10;;;;;;;;;;5102369;28;20241;-64
2021/06/12 05:02:00;;;;;;;0.08;0.08;;;;;;;;;;5112293;28;20204;-64
2021/06/12 05:04:25;;;;;;;0.00;0.00;;;;;;;;;;5111813;28;20296;-65
2021/06/12 05:06:51;;;;;;;0.10;0.10;;;;;;;;;;5101571;28;20463;-65
2021/06/12 05:09:17;;;;;;;0.00;0.00;;;;;;;;;;5102630;28;20326;-64
2021/06/12 05:11:42;;;;;;;0.10;0.10;;;;;;;;;;5102221;28;20213;-64
2021/06/12 05:14:09;;;;;;;0.00;0.00;;;;;;;;;;5102350;28;20481;-66
2021/06/12 05:16:36;;;;;;;0.10;0.10;;;;;;;;;;5102091;28;20218;-65
2021/06/12 05:19:02;;;;;;;0.10;0.10;;;;;;;;;;5102391;28;20249;-65
2021/06/12 05:21:28;;;;;;;0.00;0.00;;;;;;;;;;5101978;28;20413;-65
2021/06/12 05:23:54;;;;;;;0.00;0.00;;;;;;;;;;5102290;28;20211;-65
2021/06/12 05:26:20;;;;;;;0.63;0.63;;;;;;;;;;5102033;28;20236;-65
2021/06/12 05:28:45;;;;;;;0.00;0.00;;;;;;;;;;5102559;28;20378;-64
2021/06/12 05:31:13;;;;;;;0.00;0.00;;;;;;;;;;5102166;28;20213;-65
2021/06/12 05:33:38;;;;;;;0.00;0.00;;;;;;;;;;5102539;28;20208;-65
2021/06/12 05:36:05;;;;;;;0.00;0.00;;;;;;;;;;5102417;28;20243;-65
2021/06/12 05:38:31;;;;;;;0.00;0.00;;;;;;;;;;5104981;28;20203;-65
2021/06/12 05:40:57;;;;;;;0.00;0.00;;;;;;;;;;5105963;28;20204;-64
2021/06/12 05:43:23;;;;;;;0.00;0.00;;;;;;;;;;5099057;28;20400;-65
2021/06/12 05:45:48;;;;;;;0.00;0.00;;;;;;;;;;5104460;28;20239;-65
2021/06/12 05:48:15;;;;;;;0.00;0.00;;;;;;;;;;5106864;28;20210;-65
2021/06/12 05:50:41;;;;;;;0.00;0.00;;;;;;;;;;5097576;28;20209;-65
2021/06/12 05:53:07;;;;;;;0.00;0.00;;;;;;;;;;5105723;28;20290;-65
2021/06/12 05:55:33;;;;;;;0.00;0.00;;;;;;;;;;5105722;28;20511;-65
2021/06/12 05:57:58;;;;;;;0.00;0.00;;;;;;;;;;5105781;28;20547;-65
2021/06/12 06:00:24;;;;;;;0.00;0.00;;;;;;;;;;5105624;28;20295;-65
2021/06/12 06:02:50;;;;;;;0.00;0.00;;;;;;;;;;5111944;28;20202;-65
2021/06/12 06:05:17;;;;;;;0.00;0.00;;;;;;;;;;5104867;28;20335;-67
2021/06/12 06:07:43;;;;;;;0.00;0.00;;;;;;;;;;5105501;28;20242;-65
2021/06/12 06:10:09;;;;;;;0.00;0.00;;;;;;;;;;5105062;28;20247;-66
2021/06/12 06:12:35;;;;;;;0.00;0.00;;;;;;;;;;5105211;28;20211;-65
2021/06/12 06:15:01;;;;;;;0.10;0.10;;;;;;;;;;5108473;28;20207;-65
2021/06/12 06:17:26;;;;;;;0.00;0.00;;;;;;;;;;5107979;28;20206;-65
2021/06/12 06:19:53;;;;;;;0.10;0.10;;;;;;;;;;5104780;28;20201;-65
2021/06/12 06:22:20;;;;;;;0.00;0.00;;;;;;;;;;5105281;28;20206;-65
2021/06/12 06:24:45;;;;;;;0.00;0.00;;;;;;;;;;5104879;28;20255;-64
2021/06/12 06:27:11;;;;;;;0.00;0.00;;;;;;;;;;5105050;28;20206;-65
2021/06/12 06:29:37;;;;;;;0.00;0.00;;;;;;;;;;5104764;28;20541;-64
2021/06/12 06:32:03;;;;;;;0.10;0.10;;;;;;;;;;5105171;28;20206;-65
2021/06/12 06:34:29;;;;;;;0.00;0.00;;;;;;;;;;5104427;28;20210;-65
2021/06/12 06:36:55;;;;;;;0.00;0.00;;;;;;;;;;5104552;28;20221;-65
2021/06/12 06:39:22;;;;;;;0.00;0.00;;;;;;;;;;5104681;28;20208;-66
2021/06/12 06:41:47;;;;;;;0.00;0.00;;;;;;;;;;5104900;28;20212;-65
2021/06/12 06:44:13;;;;;;;0.00;0.00;;;;;;;;;;5104591;28;20334;-64
2021/06/12 06:46:39;;;;;;;0.00;0.00;;;;;;;;;;5104953;28;20206;-64
2021/06/12 06:49:05;;;;;;;0.10;0.10;;;;;;;;;;5104311;28;20232;-64
2021/06/12 06:51:31;;;;;;;0.00;0.00;;;;;;;;;;5104704;28;20211;-65
2021/06/12 06:53:56;;;;;;;0.00;0.00;;;;;;;;;;5104294;28;20220;-64
2021/06/12 06:56:23;;;;;;;0.00;0.00;;;;;;;;;;5102817;28;20207;-64
2021/06/12 06:58:49;;;;;;;0.10;0.10;;;;;;;;;;5101066;28;20201;-64
2021/06/12 07:01:15;;;;;;;0.00;0.00;;;;;;;;;;5104182;28;20396;-65
2021/06/12 07:03:40;;;;;;;0.00;0.00;;;;;;;;;;5101021;28;20495;-65
2021/06/12 07:06:06;;;;;;;0.10;0.10;;;;;;;;;;5106525;28;20464;-65
2021/06/12 07:08:32;;;;;;;0.00;0.00;;;;;;;;;;5104216;28;20389;-66
2021/06/12 07:10:58;;;;;;;0.10;0.10;;;;;;;;;;5104115;28;20206;-65
2021/06/12 07:13:25;;;;;;;0.00;0.00;;;;;;;;;;5103983;28;20283;-65
2021/06/12 07:15:51;;;;;;;0.00;0.00;;;;;;;;;;5104319;28;20253;-65
2021/06/12 07:18:17;;;;;;;0.10;0.10;;;;;;;;;;5103990;28;20272;-64
2021/06/12 07:20:46;;;;;;;0.00;0.00;;;;;;;;;;5103950;28;20250;-64
2021/06/12 07:23:12;;;;;;;0.05;0.05;;;;;;;;;;5104130;28;20203;-65
2021/06/12 07:25:38;;;;;;;0.00;0.00;;;;;;;;;;5113924;28;20243;-65
2021/06/12 07:28:03;;;;;;;0.00;0.00;;;;;;;;;;5103481;28;20296;-65
2021/06/12 07:30:34;;;;;;;0.00;0.00;;;;;;;;;;5103618;28;20298;-65
2021/06/12 07:33:00;;;;;;;0.00;0.00;;;;;;;;;;5103274;28;20265;-64
2021/06/12 07:35:26;;;;;;;0.00;0.00;;;;;;;;;;5103770;28;20204;-65
2021/06/12 07:37:51;;;;;;;0.00;0.00;;;;;;;;;;5104713;28;20367;-67
2021/06/12 07:40:17;;;;;;;0.00;0.00;;;;;;;;;;5093838;28;20199;-65
2021/06/12 07:42:43;;;;;;;0.10;0.10;;;;;;;;;;5101979;28;20502;-65
2021/06/12 07:45:09;;;;;;;0.00;0.00;;;;;;;;;;5103522;28;20203;-65
2021/06/12 07:47:36;;;;;;;0.10;0.10;;;;;;;;;;5103440;28;20206;-64
2021/06/12 07:50:02;;;;;;;0.10;0.10;;;;;;;;;;5108191;28;20231;-65
2021/06/12 07:52:28;;;;;;;0.00;0.00;;;;;;;;;;5103013;28;20495;-65
2021/06/12 07:54:53;;;;;;;0.00;0.00;;;;;;;;;;5102792;28;20201;-64
2021/06/12 07:57:19;;;;;;;0.00;0.00;;;;;;;;;;5103073;28;20205;-65
2021/06/12 07:59:45;;;;;;;0.00;0.00;;;;;;;;;;5102364;28;20447;-65
2021/06/12 08:02:11;;;;;;;0.00;0.00;;;;;;;;;;5099504;28;20213;-64
2021/06/12 08:04:38;;;;;;;0.00;0.00;;;;;;;;;;5096269;28;20384;-64
2021/06/12 08:07:04;;;;;;;0.00;0.00;;;;;;;;;;5107209;28;20501;-65
2021/06/12 08:09:29;;;;;;;0.10;0.10;;;;;;;;;;5104008;28;20539;-64
2021/06/12 08:11:55;;;;;;;0.00;0.00;;;;;;;;;;5103749;28;20203;-65
2021/06/12 08:14:21;;;;;;;0.00;0.00;;;;;;;;;;5095503;28;20209;-65
2021/06/12 08:16:47;;;;;;;0.08;0.08;;;;;;;;;;5108233;28;20205;-64
2021/06/12 08:19:12;;;;;;;0.00;0.00;;;;;;;;;;5109024;28;20201;-64
2021/06/12 08:21:40;;;;;;;0.00;0.00;;;;;;;;;;5110453;28;20274;-64
2021/06/12 08:24:06;;;;;;;0.00;0.00;;;;;;;;;;5106862;28;20213;-65
2021/06/12 08:26:32;;;;;;;0.10;0.10;;;;;;;;;;5092282;28;20257;-65
2021/06/12 08:28:57;;;;;;;0.00;0.00;;;;;;;;;;5102469;28;20610;-64
2021/06/12 08:31:23;;;;;;;0.05;0.05;;;;;;;;;;5107369;28;20225;-63
2021/06/12 08:33:50;;;;;;;0.00;0.00;;;;;;;;;;5096965;28;20212;-64
2021/06/12 08:36:15;;;;;;;0.00;0.00;;;;;;;;;;5105145;28;20205;-64
2021/06/12 08:38:43;;;;;;;0.00;0.00;;;;;;;;;;5108156;28;20212;-64
2021/06/12 08:41:09;;;;;;;0.20;0.20;;;;;;;;;;5100267;28;20207;-64
2021/06/12 08:43:35;;;;;;;0.08;0.08;;;;;;;;;;5107377;28;20226;-64
2021/06/12 08:46:01;;;;;;;0.10;0.10;;;;;;;;;;5108378;28;20217;-66
2021/06/12 08:48:27;;;;;;;0.45;0.45;;;;;;;;;;5102321;28;20215;-66
2021/06/12 08:50:53;;;;;;;0.00;0.00;;;;;;;;;;5102993;28;20292;-68
2021/06/12 08:53:19;;;;;;;0.00;0.00;;;;;;;;;;5097054;28;20213;-69
2021/06/12 08:55:47;;;;;;;0.00;0.00;;;;;;;;;;5100674;28;20275;-67
2021/06/12 08:58:13;;;;;;;0.00;0.00;;;;;;;;;;5098034;28;20513;-68
2021/06/12 09:00:39;;;;;;;0.00;0.00;;;;;;;;;;5101608;28;20196;-69
2021/06/12 09:03:09;;;;;;;0.00;0.00;;;;;;;;;;5101835;28;20349;-69
2021/06/12 09:05:40;;;;;;;0.05;0.05;;;;;;;;;;5101733;28;20435;-69
2021/06/12 09:08:06;;;;;;;0.00;0.00;;;;;;;;;;5105475;28;20482;-68
2021/06/12 09:10:32;;;;;;;0.20;0.20;;;;;;;;;;5097177;28;20261;-68
2021/06/12 09:13:00;;;;;;;0.00;0.00;;;;;;;;;;5103924;28;20346;-69
2021/06/12 09:15:26;;;;;;;0.10;0.10;;;;;;;;;;5098470;28;20204;-70
2021/06/12 09:17:52;;;;;;;0.00;0.00;;;;;;;;;;5107065;28;20207;-69
2021/06/12 09:20:19;;;;;;;0.00;0.00;;;;;;;;;;5104934;28;20197;-68
2021/06/12 09:22:45;;;;;;;0.10;0.10;;;;;;;;;;5107604;28;20198;-66
2021/06/12 09:25:11;;;;;;;0.00;0.00;;;;;;;;;;5106195;28;20546;-68
2021/06/12 09:27:37;;;;;;;0.00;0.00;;;;;;;;;;5109758;28;20379;-64
2021/06/12 09:30:07;;;;;;;0.00;0.00;;;;;;;;;;5103694;28;20225;-64
2021/06/12 09:32:33;;;;;;;0.00;0.00;;;;;;;;;;5108937;28;20206;-66
2021/06/12 09:35:03;;;;;;;0.00;0.00;;;;;;;;;;5103511;28;20211;-66
2021/06/12 09:37:29;;;;;;;0.00;0.00;;;;;;;;;;5107003;28;20201;-66
2021/06/12 09:39:58;;;;;;;0.00;0.00;;;;;;;;;;5105108;28;20224;-66
2021/06/12 09:42:41;;;;;;;0.00;0.00;;;;;;;;;;5111563;28;20203;-65
2021/06/12 09:45:10;;;;;;;0.00;0.00;;;;;;;;;;5099876;28;20212;-66
2021/06/12 09:47:36;;;;;;;0.00;0.00;;;;;;;;;;5106137;28;20224;-65
2021/06/12 09:50:03;;;;;;;0.00;0.00;;;;;;;;;;5117038;28;20671;-64
2021/06/12 09:52:39;;;;;;;0.00;0.00;;;;;;;;;;5106857;28;20206;-65
2021/06/12 09:55:05;;;;;;;0.00;0.00;;;;;;;;;;5106274;28;20217;-66
2021/06/12 09:57:31;;;;;;;0.00;0.00;;;;;;;;;;5108642;28;20205;-66
2021/06/12 09:59:57;;;;;;;0.05;0.05;;;;;;;;;;5112978;28;20483;-66
2021/06/12 10:02:37;;;;;;;0.00;0.00;;;;;;;;;;5113637;28;20199;-66
2021/06/12 10:05:04;;;;;;;0.00;0.00;;;;;;;;;;5106164;28;20204;-67
2021/06/12 10:07:30;;;;;;;0.00;0.00;;;;;;;;;;5105635;28;20205;-66
2021/06/12 10:09:56;;;;;;;0.00;0.00;;;;;;;;;;5105731;28;20226;-66
2021/06/12 10:12:22;;;;;;;0.00;0.00;;;;;;;;;;5105397;28;20493;-66
2021/06/12 10:14:50;;;;;;;0.08;0.08;;;;;;;;;;5105571;28;20201;-65
2021/06/12 10:17:17;;;;;;;0.00;0.00;;;;;;;;;;5105140;28;20209;-65
2021/06/12 10:19:45;;;;;;;0.00;0.00;;;;;;;;;;5109953;28;20200;-65
2021/06/12 10:22:11;;;;;;;0.00;0.00;;;;;;;;;;5104922;28;20207;-65
2021/06/12 10:24:40;;;;;;;0.00;0.00;;;;;;;;;;5104507;28;20231;-65
2021/06/12 10:27:06;;;;;;;0.10;0.10;;;;;;;;;;5091603;28;20208;-65
2021/06/12 10:29:33;;;;;;;0.05;0.05;;;;;;;;;;5104747;28;20220;-65
2021/06/12 10:32:00;;;;;;;0.00;0.00;;;;;;;;;;5104859;28;20210;-65
2021/06/12 10:34:26;;;;;;;0.00;0.00;;;;;;;;;;5104461;28;20204;-67
2021/06/12 10:37:01;;;;;;;0.00;0.00;;;;;;;;;;5105163;28;20454;-65
2021/06/12 10:39:28;;;;;;;0.00;0.00;;;;;;;;;;5105729;28;20205;-65
2021/06/12 10:42:08;;;;;;;0.10;0.10;;;;;;;;;;5104922;28;20240;-66
2021/06/12 10:44:34;;;;;;;0.00;0.00;;;;;;;;;;5093677;28;20269;-66
2021/06/12 10:47:00;;;;;;;0.10;0.10;;;;;;;;;;5105515;28;20544;-66
2021/06/12 10:49:31;;;;;;;0.10;0.10;;;;;;;;;;5103568;28;20236;-64
2021/06/12 10:51:57;;;;;;;0.00;0.00;;;;;;;;;;5102634;28;20217;-65
2021/06/12 10:54:25;;;;;;;0.08;0.08;;;;;;;;;;5111765;28;20277;-64
2021/06/12 10:56:52;;;;;;;0.00;0.00;;;;;;;;;;5110784;28;20429;-65
2021/06/12 10:59:36;;;;;;;0.00;0.00;;;;;;;;;;5105462;28;20248;-65
2021/06/12 11:02:05;;;;;;;0.00;0.00;;;;;;;;;;5098090;28;20218;-68
2021/06/12 11:04:40;;;;;;;0.00;0.00;;;;;;;;;;5100650;28;20231;-68
2021/06/12 11:07:22;;;;;;;0.00;0.00;;;;;;;;;;5099522;28;20449;-68
2021/06/12 11:09:49;;;;;;;0.20;0.20;;;;;;;;;;5097457;28;20511;-67
2021/06/12 11:12:30;;;;;;;0.10;0.10;;;;;;;;;;5103548;28;20208;-68
2021/06/12 11:14:57;;;;;;;0.00;0.00;;;;;;;;;;5103331;28;20196;-68
2021/06/12 11:17:23;;;;;;;0.00;0.00;;;;;;;;;;5104476;28;20216;-67
2021/06/12 11:19:50;;;;;;;0.00;0.00;;;;;;;;;;5099310;28;20205;-68
2021/06/12 11:22:29;;;;;;;0.00;0.00;;;;;;;;;;5100564;28;20372;-70
2021/06/12 11:24:58;;;;;;;0.00;0.00;;;;;;;;;;5105371;28;20239;-69
2021/06/12 11:27:25;;;;;;;0.00;0.00;;;;;;;;;;5102394;28;20240;-67
2021/06/12 11:30:10;;;;;;;0.10;0.10;;;;;;;;;;5099754;28;20408;-66
2021/06/12 11:32:37;;;;;;;0.00;0.00;;;;;;;;;;5100058;28;20208;-64
2021/06/12 11:35:03;;;;;;;0.00;0.00;;;;;;;;;;5098732;28;20205;-64
2021/06/12 11:37:29;;;;;;;0.00;0.00;;;;;;;;;;5103566;28;20205;-66
2021/06/12 11:39:57;;;;;;;0.08;0.08;;;;;;;;;;5090259;28;20441;-68
2021/06/12 11:42:23;;;;;;;0.10;0.10;;;;;;;;;;5100566;28;20208;-66
2021/06/12 11:44:49;;;;;;;0.00;0.00;;;;;;;;;;5102615;28;20222;-70
2021/06/12 11:47:25;;;;;;;0.03;0.03;;;;;;;;;;5104263;28;20328;-71
2021/06/12 11:49:51;;;;;;;0.08;0.08;;;;;;;;;;5100576;28;20523;-67
2021/06/12 11:52:16;;;;;;;0.00;0.00;;;;;;;;;;5104036;28;20247;-67
2021/06/12 11:54:42;;;;;;;0.00;0.00;;;;;;;;;;5100920;28;20206;-67
2021/06/12 11:57:09;;;;;;;0.00;0.00;;;;;;;;;;5098217;28;20198;-67
2021/06/12 11:59:35;;;;;;;0.00;0.00;;;;;;;;;;5099536;28;20334;-68
2021/06/12 12:02:05;;;;;;;0.20;0.20;;;;;;;;;;5097258;28;20204;-69
2021/06/12 12:04:33;;;;;;;0.00;0.00;;;;;;;;;;5090681;28;20207;-69
2021/06/12 12:06:59;;;;;;;0.00;0.00;;;;;;;;;;5100385;28;20212;-70
2021/06/12 12:09:26;;;;;;;0.10;0.10;;;;;;;;;;5103064;28;20290;-71
2021/06/12 12:11:53;;;;;;;0.00;0.00;;;;;;;;;;5102945;28;20246;-70
2021/06/12 12:14:25;;;;;;;0.40;0.40;;;;;;;;;;5103139;28;20206;-72
2021/06/12 12:16:51;;;;;;;0.80;0.80;;;;;;;;;;5107353;28;20319;-70
2021/06/12 12:19:17;;;;;;;0.00;0.00;;;;;;;;;;5093365;28;20217;-71
2021/06/12 12:21:43;;;;;;;0.00;0.00;;;;;;;;;;5097678;28;20504;-72
2021/06/12 12:24:09;;;;;;;0.50;0.50;;;;;;;;;;5099079;28;20206;-72
2021/06/12 12:26:35;;;;;;;0.00;0.00;;;;;;;;;;5107257;28;20243;-73
2021/06/12 12:29:05;;;;;;;0.05;0.05;;;;;;;;;;5101240;28;20478;-74
2021/06/12 12:31:33;;;;;;;0.10;0.10;;;;;;;;;;5089481;28;20208;-73
2021/06/12 12:34:00;;;;;;;0.00;0.00;;;;;;;;;;5102800;28;20448;-73
2021/06/12 12:36:26;;;;;;;0.47;0.47;;;;;;;;;;5105321;28;20451;-73
2021/06/12 12:38:56;;;;;;;0.05;0.05;;;;;;;;;;5095679;28;20216;-73
2021/06/12 12:41:23;;;;;;;0.10;0.10;;;;;;;;;;5101899;28;20291;-72
2021/06/12 12:43:51;;;;;;;0.10;0.10;;;;;;;;;;5100537;28;20471;-71
2021/06/12 12:46:17;;;;;;;0.00;0.00;;;;;;;;;;5119317;28;20236;-73
2021/06/12 12:48:45;;;;;;;0.57;0.57;;;;;;;;;;5107638;28;20287;-73
2021/06/12 12:51:10;;;;;;;0.00;0.00;;;;;;;;;;5106232;28;20203;-73
2021/06/12 12:53:37;;;;;;;0.00;0.00;;;;;;;;;;5103771;28;20244;-73
2021/06/12 12:56:03;;;;;;;0.00;0.00;;;;;;;;;;5105233;28;20209;-73
2021/06/12 12:58:30;;;;;;;0.00;0.00;;;;;;;;;;5108372;28;20199;-72
2021/06/12 13:01:03;;;;;;;0.17;0.17;;;;;;;;;;5108887;28;20204;-72
2021/06/12 13:03:39;;;;;;;0.00;0.00;;;;;;;;;;5092980;28;20246;-72
2021/06/12 13:06:27;;;;;;;0.00;0.00;;;;;;;;;;5108342;28;20229;-72
2021/06/12 13:09:04;;;;;;;0.00;0.00;;;;;;;;;;5107932;28;20206;-73
2021/06/12 13:11:39;;;;;;;0.00;0.00;;;;;;;;;;5106772;28;20245;-72
2021/06/12 13:14:05;;;;;;;0.00;0.00;;;;;;;;;;5094129;28;20345;-73
2021/06/12 13:16:31;;;;;;;0.00;0.00;;;;;;;;;;5106603;28;20233;-73
2021/06/12 13:19:11;;;;;;;0.00;0.00;;;;;;;;;;5106226;28;20302;-73
2021/06/12 13:21:46;;;;;;;0.08;0.08;;;;;;;;;;5106538;28;20198;-72
2021/06/12 13:24:12;;;;;;;0.00;0.00;;;;;;;;;;5105219;28;20217;-73
2021/06/12 13:26:39;;;;;;;0.00;0.00;;;;;;;;;;5106391;28;20413;-73
2021/06/12 13:29:16;;;;;;;0.03;0.03;;;;;;;;;;5092236;28;20205;-73
2021/06/12 13:31:42;;;;;;;0.32;0.32;;;;;;;;;;5094458;28;20236;-64
2021/06/12 13:34:21;;;;;;;0.10;0.10;;;;;;;;;;5105449;28;20412;-65
2021/06/12 13:36:51;;;;;;;0.00;0.00;;;;;;;;;;5105885;28;20523;-69
2021/06/12 13:39:27;;;;;;;0.00;0.00;;;;;;;;;;5106295;28;20198;-69
2021/06/12 13:42:04;;;;;;;0.10;0.10;;;;;;;;;;5111182;28;20276;-69
2021/06/12 13:44:30;;;;;;;0.05;0.05;;;;;;;;;;5110681;28;20203;-69
2021/06/12 13:46:56;;;;;;;0.03;0.03;;;;;;;;;;5110190;28;20203;-68
2021/06/12 13:49:21;;;;;;;0.00;0.00;;;;;;;;;;5102270;28;20417;-69
2021/06/12 13:51:47;;;;;;;0.00;0.00;;;;;;;;;;5108033;28;20208;-67
2021/06/12 13:54:14;;;;;;;0.10;0.10;;;;;;;;;;5108974;28;20203;-67
2021/06/12 13:56:42;;;;;;;0.03;0.03;;;;;;;;;;5102725;28;20210;-67
2021/06/12 13:59:10;;;;;;;0.00;0.00;;;;;;;;;;5103388;28;20388;-67
2021/06/12 14:01:35;;;;;;;0.20;0.20;;;;;;;;;;5107715;28;20211;-67
2021/06/12 14:04:03;;;;;;;0.10;0.10;;;;;;;;;;5107555;28;20253;-66
2021/06/12 14:06:29;;;;;;;0.30;0.30;;;;;;;;;;5109135;28;20315;-68
2021/06/12 14:08:55;;;;;;;0.00;0.00;;;;;;;;;;5098558;28;20274;-68
2021/06/12 14:11:22;;;;;;;0.40;0.40;;;;;;;;;;5105052;28;20497;-67
2021/06/12 14:13:47;;;;;;;0.00;0.00;;;;;;;;;;5104985;28;20200;-67
2021/06/12 14:16:13;;;;;;;0.05;0.05;;;;;;;;;;5109120;28;20365;-68
2021/06/12 14:18:39;;;;;;;0.00;0.00;;;;;;;;;;5103424;28;20510;-67
2021/06/12 14:21:05;;;;;;;0.30;0.30;;;;;;;;;;5112920;28;20209;-70
2021/06/12 14:23:30;;;;;;;0.00;0.00;;;;;;;;;;5100921;28;20223;-70
2021/06/12 14:25:57;;;;;;;0.20;0.20;;;;;;;;;;5102204;28;20233;-68
2021/06/12 14:28:26;;;;;;;0.20;0.20;;;;;;;;;;5100115;28;20204;-68
2021/06/12 14:30:51;;;;;;;0.10;0.10;;;;;;;;;;5099899;28;20246;-68
2021/06/12 14:33:17;;;;;;;0.10;0.10;;;;;;;;;;5093277;28;20226;-67
2021/06/12 14:35:43;;;;;;;0.00;0.00;;;;;;;;;;5109299;28;20204;-68
2021/06/12 14:38:09;;;;;;;0.20;0.20;;;;;;;;;;5104849;28;20237;-69
2021/06/12 14:40:35;;;;;;;0.00;0.00;;;;;;;;;;5102572;28;20537;-66
2021/06/12 14:43:01;;;;;;;0.00;0.00;;;;;;;;;;5099119;28;20255;-66